createdAt,value
2018-04-27T00:00:59.755Z,9.23
2018-04-27T00:01:59.447Z,9.27
2018-04-27T00:02:59.849Z,9.19
2018-04-27T00:03:59.426Z,9.29
2018-04-27T00:04:59.261Z,9.27
2018-04-27T00:05:59.586Z,9.24
2018-04-27T00:06:59.226Z,9.29
2018-04-27T00:07:59.665Z,9.23
2018-04-27T00:08:59.136Z,9.19
2018-04-27T00:09:59.089Z,9.11
2018-04-27T00:10:59.347Z,9.04
2018-04-27T00:11:59.060Z,9.12
2018-04-27T00:12:59.006Z,9.06
2018-04-27T00:13:59.036Z,9.03
2018-04-27T00:14:59.035Z,8.95
2018-04-27T00:15:58.953Z,8.95
2018-04-27T00:16:58.970Z,8.80
2018-04-27T00:17:58.899Z,8.77
2018-04-27T00:18:58.825Z,8.86
2018-04-27T00:19:58.927Z,8.80
2018-04-27T00:20:58.909Z,8.95
2018-04-27T00:21:58.808Z,8.92
2018-04-27T00:22:58.927Z,8.93
2018-04-27T00:23:58.664Z,8.93
2018-04-27T00:24:58.749Z,8.90
2018-04-27T00:25:58.739Z,8.93
2018-04-27T00:26:58.580Z,8.98
2018-04-27T00:27:58.575Z,8.95
2018-04-27T00:28:58.759Z,8.98
2018-04-27T00:29:58.493Z,9.08
2018-04-27T00:30:58.647Z,8.96
2018-04-27T00:31:58.517Z,8.99
2018-04-27T00:32:58.518Z,9.04
2018-04-27T00:33:58.521Z,8.99
2018-04-27T00:34:58.400Z,8.95
2018-04-27T00:35:58.358Z,8.96
2018-04-27T00:36:58.269Z,8.95
2018-04-27T00:37:58.523Z,8.95
2018-04-27T00:38:58.358Z,8.78
2018-04-27T00:39:58.219Z,8.78
2018-04-27T00:40:58.163Z,8.89
2018-04-27T00:41:58.341Z,8.86
2018-04-27T00:42:58.104Z,8.89
2018-04-27T00:43:58.095Z,8.88
2018-04-27T00:44:58.093Z,8.90
2018-04-27T00:45:58.062Z,8.85
2018-04-27T00:46:58.110Z,8.77
2018-04-27T00:47:57.982Z,8.75
2018-04-27T00:48:57.974Z,8.81
2018-04-27T00:49:57.891Z,8.75
2018-04-27T00:50:57.922Z,8.74
2018-04-27T00:51:57.936Z,8.70
2018-04-27T00:52:57.835Z,8.70
2018-04-27T00:53:57.843Z,8.63
2018-04-27T00:54:57.882Z,8.70
2018-04-27T00:55:57.729Z,8.72
2018-04-27T00:56:57.690Z,8.74
2018-04-27T00:57:57.812Z,8.78
2018-04-27T00:58:57.759Z,8.74
2018-04-27T00:59:57.689Z,8.85
2018-04-27T01:00:57.589Z,8.83
2018-04-27T01:01:57.518Z,8.75
2018-04-27T01:02:57.491Z,8.72
2018-04-27T01:03:57.472Z,8.75
2018-04-27T01:04:57.434Z,8.77
2018-04-27T01:05:57.496Z,8.75
2018-04-27T01:06:57.369Z,8.77
2018-04-27T01:07:57.332Z,8.80
2018-04-27T01:08:57.310Z,8.75
2018-04-27T01:09:57.278Z,8.75
2018-04-27T01:10:57.440Z,8.78
2018-04-27T01:11:57.244Z,8.74
2018-04-27T01:12:57.189Z,8.75
2018-04-27T01:13:57.159Z,8.71
2018-04-27T01:14:57.128Z,8.83
2018-04-27T01:15:57.181Z,8.93
2018-04-27T01:16:57.066Z,8.81
2018-04-27T01:17:57.047Z,8.80
2018-04-27T01:18:57.215Z,8.88
2018-04-27T01:19:56.978Z,8.78
2018-04-27T01:20:56.962Z,8.81
2018-04-27T01:21:56.910Z,8.72
2018-04-27T01:22:56.880Z,8.78
2018-04-27T01:23:57.028Z,8.83
2018-04-27T01:24:57.044Z,8.77
2018-04-27T01:25:56.797Z,8.77
2018-04-27T01:26:56.763Z,8.77
2018-04-27T01:27:56.778Z,8.77
2018-04-27T01:28:56.860Z,8.86
2018-04-27T01:29:56.730Z,8.80
2018-04-27T01:30:56.763Z,8.86
2018-04-27T01:31:56.693Z,8.86
2018-04-27T01:32:56.637Z,8.88
2018-04-27T01:33:56.558Z,8.74
2018-04-27T01:34:56.606Z,8.93
2018-04-27T01:35:56.499Z,8.89
2018-04-27T01:36:56.506Z,8.93
2018-04-27T01:37:56.424Z,8.81
2018-04-27T01:38:56.544Z,8.85
2018-04-27T01:39:56.380Z,8.81
2018-04-27T01:40:56.523Z,8.77
2018-04-27T01:41:56.318Z,8.83
2018-04-27T01:42:56.465Z,8.78
2018-04-27T01:43:56.245Z,8.68
2018-04-27T01:44:56.216Z,8.65
2018-04-27T01:45:56.368Z,8.71
2018-04-27T01:46:56.151Z,8.65
2018-04-27T01:47:56.126Z,8.56
2018-04-27T01:48:56.103Z,8.53
2018-04-27T01:49:56.066Z,8.59
2018-04-27T01:50:56.149Z,8.44
2018-04-27T01:51:56.005Z,8.44
2018-04-27T01:52:56.136Z,8.55
2018-04-27T01:53:56.025Z,8.49
2018-04-27T01:54:55.962Z,8.46
2018-04-27T01:55:55.884Z,8.46
2018-04-27T01:56:56.048Z,8.44
2018-04-27T01:57:55.845Z,8.42
2018-04-27T01:58:55.797Z,8.44
2018-04-27T01:59:55.763Z,8.46
2018-04-27T02:00:55.987Z,8.49
2018-04-27T02:01:55.750Z,8.41
2018-04-27T02:02:55.665Z,8.44
2018-04-27T02:03:55.633Z,8.46
2018-04-27T02:04:55.602Z,8.50
2018-04-27T02:05:55.799Z,8.52
2018-04-27T02:06:55.584Z,8.38
2018-04-27T02:07:55.511Z,8.35
2018-04-27T02:08:55.653Z,8.26
2018-04-27T02:09:55.455Z,8.23
2018-04-27T02:10:55.487Z,8.14
2018-04-27T02:11:55.581Z,8.17
2018-04-27T02:12:55.359Z,8.13
2018-04-27T02:13:55.322Z,8.21
2018-04-27T02:14:55.284Z,8.20
2018-04-27T02:15:55.395Z,8.23
2018-04-27T02:16:55.227Z,8.17
2018-04-27T02:17:55.301Z,8.19
2018-04-27T02:18:55.212Z,8.21
2018-04-27T02:19:55.140Z,8.13
2018-04-27T02:20:55.106Z,8.19
2018-04-27T02:21:55.145Z,8.12
2018-04-27T02:22:55.040Z,8.10
2018-04-27T02:23:55.014Z,8.12
2018-04-27T02:25:16.308Z,8.23
2018-04-27T02:26:56.967Z,8.21
2018-04-27T02:27:56.731Z,8.21
2018-04-27T02:30:09.206Z,8.24
2018-04-27T02:31:07.915Z,8.24
2018-04-27T02:33:12.388Z,8.21
2018-04-27T02:34:11.943Z,8.28
2018-04-27T02:36:23.527Z,8.28
2018-04-27T02:37:23.202Z,8.24
2018-04-27T02:39:28.868Z,8.31
2018-04-27T02:40:28.682Z,8.29
2018-04-27T02:42:45.130Z,8.28
2018-04-27T02:43:44.742Z,8.42
2018-04-27T02:45:57.593Z,8.47
2018-04-27T02:46:57.319Z,8.47
2018-04-27T02:49:01.488Z,8.46
2018-04-27T02:50:00.678Z,8.49
2018-04-27T02:52:05.175Z,8.46
2018-04-27T02:53:05.389Z,8.44
2018-04-27T02:55:21.663Z,8.35
2018-04-27T02:56:21.257Z,8.39
2018-04-27T02:58:24.915Z,8.37
2018-04-27T02:59:24.825Z,8.31
2018-04-27T03:00:24.586Z,8.28
2018-04-27T03:01:24.571Z,8.38
2018-04-27T03:02:24.588Z,8.41
2018-04-27T03:03:24.519Z,8.42
2018-04-27T03:04:24.418Z,8.44
2018-04-27T03:05:24.393Z,8.52
2018-04-27T03:06:24.353Z,8.41
2018-04-27T03:07:24.325Z,8.37
2018-04-27T03:08:24.295Z,8.29
2018-04-27T03:09:24.264Z,8.32
2018-04-27T03:10:24.234Z,8.29
2018-04-27T03:11:24.206Z,8.26
2018-04-27T03:12:24.173Z,8.24
2018-04-27T03:13:24.157Z,8.34
2018-04-27T03:14:24.109Z,8.32
2018-04-27T03:15:24.078Z,8.29
2018-04-27T03:16:24.102Z,8.47
2018-04-27T03:17:24.022Z,8.42
2018-04-27T03:18:24.035Z,8.50
2018-04-27T03:19:23.962Z,8.42
2018-04-27T03:20:23.955Z,8.44
2018-04-27T03:21:23.896Z,8.37
2018-04-27T03:22:23.868Z,8.26
2018-04-27T03:23:23.839Z,8.37
2018-04-27T03:24:23.809Z,8.20
2018-04-27T03:25:23.845Z,8.13
2018-04-27T03:26:23.748Z,8.20
2018-04-27T03:27:23.757Z,8.29
2018-04-27T03:28:23.682Z,8.21
2018-04-27T03:29:23.674Z,8.20
2018-04-27T03:30:23.613Z,8.28
2018-04-27T03:31:23.596Z,8.17
2018-04-27T03:32:23.564Z,8.24
2018-04-27T03:33:23.525Z,8.23
2018-04-27T03:34:23.522Z,8.17
2018-04-27T03:35:23.497Z,8.19
2018-04-27T03:36:23.443Z,8.16
2018-04-27T03:37:23.409Z,8.14
2018-04-27T03:38:23.386Z,8.17
2018-04-27T03:39:23.351Z,8.12
2018-04-27T03:40:23.314Z,8.12
2018-04-27T03:41:23.285Z,8.05
2018-04-27T03:42:23.254Z,8.05
2018-04-27T03:43:23.236Z,7.98
2018-04-27T03:44:23.196Z,8.02
2018-04-27T03:45:23.294Z,7.87
2018-04-27T03:46:23.137Z,7.83
2018-04-27T03:47:23.178Z,7.84
2018-04-27T03:48:23.089Z,7.84
2018-04-27T03:49:23.032Z,7.84
2018-04-27T03:50:23.005Z,7.78
2018-04-27T03:51:23.063Z,7.91
2018-04-27T03:52:22.961Z,7.88
2018-04-27T03:53:22.919Z,7.80
2018-04-27T03:54:22.890Z,7.81
2018-04-27T03:55:22.857Z,7.84
2018-04-27T03:56:22.830Z,7.73
2018-04-27T03:57:22.799Z,7.76
2018-04-27T03:58:22.766Z,7.78
2018-04-27T03:59:22.744Z,7.77
2018-04-27T04:00:22.705Z,7.76
2018-04-27T04:01:22.665Z,7.83
2018-04-27T04:02:22.639Z,7.80
2018-04-27T04:03:22.605Z,7.83
2018-04-27T04:04:22.581Z,7.80
2018-04-27T04:05:22.549Z,7.80
2018-04-27T04:06:22.510Z,7.77
2018-04-27T04:07:22.486Z,7.80
2018-04-27T04:08:22.461Z,7.74
2018-04-27T04:09:22.430Z,7.77
2018-04-27T04:10:22.392Z,7.78
2018-04-27T04:11:22.373Z,7.77
2018-04-27T04:12:22.338Z,7.71
2018-04-27T04:13:22.384Z,7.68
2018-04-27T04:14:22.297Z,7.80
2018-04-27T04:15:22.306Z,7.64
2018-04-27T04:16:22.278Z,7.71
2018-04-27T04:17:22.181Z,7.69
2018-04-27T04:18:22.169Z,7.64
2018-04-27T04:19:22.222Z,7.61
2018-04-27T04:20:22.127Z,7.64
2018-04-27T04:21:22.050Z,7.66
2018-04-27T04:22:22.176Z,7.71
2018-04-27T04:23:21.988Z,7.60
2018-04-27T04:24:22.051Z,7.62
2018-04-27T04:25:21.935Z,7.60
2018-04-27T04:26:21.906Z,7.57
2018-04-27T04:27:21.985Z,7.74
2018-04-27T04:28:21.836Z,7.83
2018-04-27T04:29:21.811Z,7.68
2018-04-27T04:30:21.857Z,7.80
2018-04-27T04:31:21.753Z,7.81
2018-04-27T04:32:21.889Z,7.76
2018-04-27T04:33:21.680Z,7.80
2018-04-27T04:34:21.653Z,7.80
2018-04-27T04:35:21.621Z,7.74
2018-04-27T04:36:21.584Z,7.64
2018-04-27T04:37:21.563Z,7.64
2018-04-27T04:38:21.550Z,7.64
2018-04-27T04:39:21.503Z,7.62
2018-04-27T04:40:21.468Z,7.64
2018-04-27T04:41:21.556Z,7.61
2018-04-27T04:42:21.411Z,7.64
2018-04-27T04:43:21.393Z,7.77
2018-04-27T04:44:21.434Z,7.73
2018-04-27T04:45:21.316Z,7.77
2018-04-27T04:46:21.282Z,7.87
2018-04-27T04:47:21.254Z,7.84
2018-04-27T04:48:21.223Z,7.94
2018-04-27T04:49:21.196Z,7.98
2018-04-27T04:50:21.162Z,8.01
2018-04-27T04:51:21.125Z,8.20
2018-04-27T04:52:21.162Z,8.16
2018-04-27T04:53:21.078Z,8.13
2018-04-27T04:54:21.045Z,8.13
2018-04-27T04:55:21.005Z,8.26
2018-04-27T04:56:20.975Z,8.24
2018-04-27T04:57:20.945Z,8.23
2018-04-27T04:58:20.982Z,8.26
2018-04-27T04:59:20.886Z,8.31
2018-04-27T05:00:20.877Z,8.39
2018-04-27T05:01:20.820Z,8.42
2018-04-27T05:02:20.791Z,8.60
2018-04-27T05:03:20.759Z,8.59
2018-04-27T05:04:20.737Z,8.67
2018-04-27T05:05:20.704Z,8.70
2018-04-27T05:06:20.680Z,8.71
2018-04-27T05:07:20.646Z,8.70
2018-04-27T05:08:20.758Z,8.68
2018-04-27T05:09:20.643Z,8.74
2018-04-27T05:10:20.634Z,8.75
2018-04-27T05:11:20.535Z,8.89
2018-04-27T05:12:20.486Z,8.75
2018-04-27T05:13:20.488Z,8.96
2018-04-27T05:14:20.426Z,8.99
2018-04-27T05:15:20.423Z,8.92
2018-04-27T05:16:20.514Z,9.06
2018-04-27T05:17:20.330Z,9.06
2018-04-27T05:18:20.304Z,9.01
2018-04-27T05:19:20.275Z,9.22
2018-04-27T05:20:20.253Z,9.16
2018-04-27T05:21:20.216Z,9.30
2018-04-27T05:22:20.189Z,9.22
2018-04-27T05:23:20.438Z,9.22
2018-04-27T05:24:20.146Z,9.26
2018-04-27T05:25:20.095Z,9.30
2018-04-27T05:26:20.064Z,9.29
2018-04-27T05:27:20.034Z,9.27
2018-04-27T05:28:20.060Z,9.47
2018-04-27T05:29:20.020Z,9.42
2018-04-27T05:30:20.036Z,9.45
2018-04-27T05:31:19.988Z,9.55
2018-04-27T05:32:19.881Z,9.59
2018-04-27T05:33:19.855Z,9.57
2018-04-27T05:34:19.816Z,9.69
2018-04-27T05:35:19.806Z,9.50
2018-04-27T05:36:19.841Z,9.63
2018-04-27T05:37:19.740Z,9.63
2018-04-27T05:38:19.713Z,9.69
2018-04-27T05:39:19.676Z,9.75
2018-04-27T05:40:19.724Z,9.70
2018-04-27T05:41:19.679Z,9.73
2018-04-27T05:42:19.700Z,9.84
2018-04-27T05:43:19.555Z,9.80
2018-04-27T05:44:19.544Z,9.91
2018-04-27T05:45:19.581Z,9.81
2018-04-27T05:46:19.529Z,9.84
2018-04-27T05:47:19.744Z,10.02
2018-04-27T05:53:33.363Z,9.91
2018-04-27T05:56:17.083Z,9.93
2018-04-27T05:57:18.213Z,10.03
2018-04-27T06:01:03.969Z,9.99
2018-04-27T06:02:02.561Z,10.08
2018-04-27T06:03:17.510Z,10.05
2018-04-27T06:04:02.473Z,10.14
2018-04-27T06:05:02.487Z,9.98
2018-04-27T06:06:02.214Z,9.99
2018-04-27T06:07:02.398Z,10.08
2018-04-27T06:08:03.847Z,10.09
2018-04-27T06:09:01.885Z,10.06
2018-04-27T06:10:01.995Z,10.09
2018-04-27T06:11:01.897Z,10.16
2018-04-27T06:12:01.865Z,10.16
2018-04-27T06:13:01.753Z,10.16
2018-04-27T06:14:01.848Z,10.18
2018-04-27T06:15:01.985Z,10.17
2018-04-27T06:18:00.217Z,10.34
2018-04-27T06:22:09.920Z,10.30
2018-04-27T06:23:28.451Z,10.31
2018-04-27T06:24:21.070Z,10.42
2018-04-27T06:26:09.713Z,10.52
2018-04-27T06:27:14.758Z,10.54
2018-04-27T06:28:10.365Z,10.49
2018-04-27T06:31:05.439Z,10.61
2018-04-27T06:32:19.942Z,10.57
2018-04-27T06:33:05.452Z,10.58
2018-04-27T06:34:25.617Z,10.58
2018-04-27T06:36:14.531Z,10.65
2018-04-27T06:37:12.362Z,10.76
2018-04-27T06:38:12.408Z,10.76
2018-04-27T06:39:12.417Z,10.73
2018-04-27T06:40:12.584Z,10.85
2018-04-27T06:41:12.231Z,10.91
2018-04-27T06:42:12.197Z,10.87
2018-04-27T06:43:12.173Z,10.94
2018-04-27T06:44:12.141Z,10.95
2018-04-27T06:45:12.181Z,10.93
2018-04-27T06:46:12.084Z,10.94
2018-04-27T06:47:12.060Z,10.98
2018-04-27T06:48:12.099Z,10.98
2018-04-27T06:49:11.991Z,11.00
2018-04-27T06:50:12.051Z,11.11
2018-04-27T06:51:12.028Z,11.05
2018-04-27T06:52:12.027Z,11.12
2018-04-27T06:53:11.876Z,11.18
2018-04-27T06:54:11.996Z,11.20
2018-04-27T06:55:11.823Z,11.28
2018-04-27T06:56:11.881Z,11.33
2018-04-27T06:57:11.898Z,11.31
2018-04-27T06:58:11.728Z,11.43
2018-04-27T06:59:11.709Z,11.34
2018-04-27T07:00:11.674Z,11.46
2018-04-27T07:01:11.658Z,11.49
2018-04-27T07:02:11.619Z,11.61
2018-04-27T07:03:11.577Z,11.70
2018-04-27T07:04:11.554Z,11.52
2018-04-27T07:05:11.633Z,11.66
2018-04-27T07:06:11.505Z,11.64
2018-04-27T07:07:11.474Z,11.73
2018-04-27T07:08:11.458Z,11.80
2018-04-27T07:09:11.415Z,11.79
2018-04-27T07:10:11.409Z,11.69
2018-04-27T07:11:11.407Z,11.85
2018-04-27T07:12:11.327Z,11.80
2018-04-27T07:13:11.299Z,11.87
2018-04-27T07:14:11.269Z,11.85
2018-04-27T07:15:11.242Z,12.04
2018-04-27T07:16:11.210Z,12.10
2018-04-27T07:17:11.241Z,12.23
2018-04-27T07:18:11.159Z,12.18
2018-04-27T07:19:11.133Z,12.17
2018-04-27T07:20:11.104Z,12.23
2018-04-27T07:21:11.076Z,12.30
2018-04-27T07:22:11.044Z,12.35
2018-04-27T07:23:11.064Z,12.50
2018-04-27T07:24:10.984Z,12.63
2018-04-27T07:25:10.950Z,12.68
2018-04-27T07:26:10.927Z,12.65
2018-04-27T07:27:10.899Z,12.65
2018-04-27T07:28:10.865Z,12.66
2018-04-27T07:29:10.842Z,12.66
2018-04-27T07:30:10.820Z,12.54
2018-04-27T07:31:10.791Z,12.80
2018-04-27T07:32:10.779Z,12.77
2018-04-27T07:33:10.735Z,12.83
2018-04-27T07:34:10.759Z,12.86
2018-04-27T07:35:10.671Z,13.01
2018-04-27T07:36:10.650Z,13.05
2018-04-27T07:37:10.709Z,13.09
2018-04-27T07:38:10.584Z,13.26
2018-04-27T07:39:10.571Z,13.42
2018-04-27T07:40:10.531Z,13.49
2018-04-27T07:41:10.519Z,13.57
2018-04-27T07:42:10.476Z,13.64
2018-04-27T07:43:10.452Z,13.71
2018-04-27T07:44:10.480Z,13.71
2018-04-27T07:45:10.461Z,13.72
2018-04-27T07:46:10.369Z,13.75
2018-04-27T07:47:10.339Z,13.71
2018-04-27T07:48:10.316Z,13.68
2018-04-27T07:49:10.286Z,13.68
2018-04-27T07:50:10.359Z,13.67
2018-04-27T07:51:10.236Z,13.80
2018-04-27T07:52:10.212Z,13.93
2018-04-27T07:53:10.220Z,14.08
2018-04-27T07:54:10.146Z,14.11
2018-04-27T07:55:10.115Z,14.01
2018-04-27T07:56:10.211Z,14.04
2018-04-27T07:57:10.063Z,14.03
2018-04-27T07:58:10.043Z,14.01
2018-04-27T07:59:10.010Z,14.12
2018-04-27T08:00:09.997Z,14.22
2018-04-27T08:01:09.959Z,14.23
2018-04-27T08:02:10.000Z,14.11
2018-04-27T08:03:09.916Z,14.05
2018-04-27T08:04:09.882Z,13.93
2018-04-27T08:05:09.858Z,13.93
2018-04-27T08:06:09.832Z,13.86
2018-04-27T08:07:09.899Z,13.75
2018-04-27T08:08:09.775Z,13.91
2018-04-27T08:09:09.765Z,13.91
2018-04-27T08:10:09.811Z,13.96
2018-04-27T08:11:09.701Z,14.03
2018-04-27T08:12:09.661Z,14.00
2018-04-27T08:13:09.652Z,14.11
2018-04-27T08:14:09.612Z,14.15
2018-04-27T08:15:09.593Z,14.05
2018-04-27T08:16:09.572Z,13.97
2018-04-27T08:17:09.532Z,13.98
2018-04-27T08:18:09.544Z,14.03
2018-04-27T08:19:09.532Z,14.15
2018-04-27T08:20:09.452Z,14.36
2018-04-27T08:21:09.423Z,14.40
2018-04-27T08:22:09.405Z,14.46
2018-04-27T08:23:09.376Z,14.48
2018-04-27T08:24:09.343Z,14.44
2018-04-27T08:25:09.314Z,14.34
2018-04-27T08:26:09.293Z,14.34
2018-04-27T08:27:09.265Z,14.31
2018-04-27T08:28:09.237Z,14.31
2018-04-27T08:29:09.214Z,14.37
2018-04-27T08:30:09.214Z,14.46
2018-04-27T08:31:09.162Z,14.48
2018-04-27T08:32:09.137Z,14.66
2018-04-27T08:33:09.105Z,14.64
2018-04-27T08:34:09.074Z,14.58
2018-04-27T08:35:09.047Z,14.48
2018-04-27T08:36:09.039Z,14.41
2018-04-27T08:37:08.992Z,14.49
2018-04-27T08:38:08.969Z,14.51
2018-04-27T08:39:08.942Z,14.56
2018-04-27T08:40:08.913Z,14.86
2018-04-27T08:41:08.895Z,14.86
2018-04-27T08:42:08.872Z,14.97
2018-04-27T08:43:08.847Z,15.12
2018-04-27T08:44:08.816Z,15.40
2018-04-27T08:45:08.794Z,15.38
2018-04-27T08:46:08.773Z,15.44
2018-04-27T08:47:08.741Z,15.47
2018-04-27T08:48:08.717Z,15.60
2018-04-27T08:49:08.694Z,15.36
2018-04-27T08:50:08.694Z,15.27
2018-04-27T08:51:08.709Z,15.40
2018-04-27T08:52:08.671Z,15.41
2018-04-27T08:53:08.579Z,15.33
2018-04-27T08:54:08.551Z,15.43
2018-04-27T08:55:08.523Z,15.30
2018-04-27T08:56:08.497Z,15.25
2018-04-27T08:57:08.476Z,15.26
2018-04-27T08:58:08.449Z,15.41
2018-04-27T08:59:08.423Z,15.47
2018-04-27T09:00:08.403Z,15.50
2018-04-27T09:01:08.374Z,15.45
2018-04-27T09:02:08.348Z,15.65
2018-04-27T09:03:08.324Z,15.69
2018-04-27T09:04:08.296Z,15.81
2018-04-27T09:05:08.272Z,15.99
2018-04-27T09:06:08.240Z,15.83
2018-04-27T09:07:08.226Z,15.87
2018-04-27T09:08:08.192Z,15.88
2018-04-27T09:09:08.182Z,15.93
2018-04-27T09:10:08.142Z,15.77
2018-04-27T09:11:08.116Z,15.78
2018-04-27T09:12:08.089Z,15.85
2018-04-27T09:13:08.071Z,15.99
2018-04-27T09:14:08.045Z,15.98
2018-04-27T09:15:08.018Z,15.95
2018-04-27T09:16:07.993Z,15.95
2018-04-27T09:17:07.965Z,16.06
2018-04-27T09:18:07.941Z,15.95
2018-04-27T09:19:07.916Z,15.98
2018-04-27T09:20:07.891Z,16.10
2018-04-27T09:21:09.997Z,16.22
2018-04-27T09:22:07.837Z,16.26
2018-04-27T09:23:07.818Z,16.32
2018-04-27T09:24:07.801Z,16.09
2018-04-27T09:25:07.769Z,16.09
2018-04-27T09:26:07.753Z,15.93
2018-04-27T09:27:07.714Z,16.05
2018-04-27T09:28:07.699Z,16.03
2018-04-27T09:29:07.665Z,16.10
2018-04-27T09:30:07.636Z,16.13
2018-04-27T09:31:07.611Z,16.28
2018-04-27T09:32:07.585Z,16.25
2018-04-27T09:33:07.568Z,16.42
2018-04-27T09:34:07.547Z,16.29
2018-04-27T09:35:07.514Z,16.37
2018-04-27T09:36:07.489Z,16.26
2018-04-27T09:37:07.469Z,16.39
2018-04-27T09:38:07.449Z,16.49
2018-04-27T09:39:07.418Z,16.55
2018-04-27T09:40:07.395Z,16.58
2018-04-27T09:41:07.430Z,16.70
2018-04-27T09:42:07.378Z,16.54
2018-04-27T09:43:07.321Z,16.44
2018-04-27T09:44:07.297Z,16.37
2018-04-27T09:45:07.276Z,16.51
2018-04-27T09:46:07.252Z,16.46
2018-04-27T09:47:07.214Z,16.61
2018-04-27T09:48:07.195Z,16.46
2018-04-27T09:49:07.176Z,16.51
2018-04-27T09:50:07.152Z,16.32
2018-04-27T09:51:07.118Z,16.36
2018-04-27T09:52:07.104Z,16.43
2018-04-27T09:53:07.068Z,16.57
2018-04-27T09:54:07.046Z,16.72
2018-04-27T09:55:07.033Z,16.82
2018-04-27T09:56:06.999Z,16.84
2018-04-27T09:57:07.021Z,16.67
2018-04-27T09:58:06.973Z,16.97
2018-04-27T09:59:06.923Z,17.01
2018-04-27T10:00:06.898Z,16.88
2018-04-27T10:01:06.878Z,16.99
2018-04-27T10:02:06.846Z,16.94
2018-04-27T10:03:06.825Z,17.17
2018-04-27T10:04:06.793Z,17.22
2018-04-27T10:05:06.779Z,17.17
2018-04-27T10:06:06.742Z,17.12
2018-04-27T10:07:06.718Z,17.04
2018-04-27T10:08:06.693Z,17.31
2018-04-27T10:09:06.675Z,17.28
2018-04-27T10:10:06.655Z,17.34
2018-04-27T10:11:06.638Z,17.34
2018-04-27T10:12:06.609Z,17.37
2018-04-27T10:13:06.593Z,17.38
2018-04-27T10:14:06.558Z,17.32
2018-04-27T10:15:06.632Z,17.75
2018-04-27T10:16:06.524Z,17.91
2018-04-27T10:17:06.487Z,18.03
2018-04-27T10:18:06.453Z,17.75
2018-04-27T10:19:06.438Z,17.07
2018-04-27T10:20:06.407Z,17.32
2018-04-27T10:21:06.391Z,17.46
2018-04-27T10:22:06.373Z,17.38
2018-04-27T10:23:06.343Z,17.49
2018-04-27T10:24:06.331Z,17.69
2018-04-27T10:25:06.288Z,17.62
2018-04-27T10:26:06.345Z,17.34
2018-04-27T10:27:06.248Z,17.30
2018-04-27T10:28:06.231Z,17.32
2018-04-27T10:29:06.204Z,17.73
2018-04-27T10:30:06.175Z,17.79
2018-04-27T10:31:06.213Z,17.75
2018-04-27T10:32:06.125Z,17.84
2018-04-27T10:33:06.109Z,17.78
2018-04-27T10:34:06.081Z,17.87
2018-04-27T10:35:06.116Z,17.72
2018-04-27T10:36:06.031Z,17.71
2018-04-27T10:37:06.022Z,17.63
2018-04-27T10:38:05.993Z,17.57
2018-04-27T10:39:05.971Z,17.62
2018-04-27T10:40:05.938Z,17.43
2018-04-27T10:41:06.012Z,17.49
2018-04-27T10:42:05.894Z,17.53
2018-04-27T10:43:05.869Z,17.66
2018-04-27T10:44:05.865Z,17.83
2018-04-27T10:45:05.817Z,17.81
2018-04-27T10:46:05.794Z,18.03
2018-04-27T10:47:05.771Z,18.12
2018-04-27T10:48:05.751Z,18.05
2018-04-27T10:49:05.730Z,17.94
2018-04-27T10:50:05.738Z,18.03
2018-04-27T10:51:05.710Z,18.15
2018-04-27T10:52:05.664Z,18.15
2018-04-27T10:53:05.644Z,18.41
2018-04-27T10:54:05.616Z,18.38
2018-04-27T10:55:05.595Z,18.58
2018-04-27T10:56:05.585Z,18.64
2018-04-27T10:57:05.551Z,18.82
2018-04-27T10:58:05.522Z,18.79
2018-04-27T10:59:05.502Z,18.79
2018-04-27T11:00:05.496Z,18.61
2018-04-27T11:01:05.469Z,18.64
2018-04-27T11:02:05.434Z,18.63
2018-04-27T11:03:05.432Z,18.52
2018-04-27T11:04:05.395Z,18.15
2018-04-27T11:05:05.367Z,18.13
2018-04-27T11:06:05.346Z,18.30
2018-04-27T11:07:05.325Z,18.46
2018-04-27T11:08:05.363Z,18.70
2018-04-27T11:09:05.287Z,18.79
2018-04-27T11:10:05.267Z,19.08
2018-04-27T11:11:05.320Z,18.91
2018-04-27T11:12:05.229Z,18.96
2018-04-27T11:13:05.190Z,19.09
2018-04-27T11:14:05.169Z,19.22
2018-04-27T11:15:05.154Z,19.31
2018-04-27T11:16:05.128Z,19.47
2018-04-27T11:17:05.313Z,19.54
2018-04-27T11:18:05.079Z,19.57
2018-04-27T11:19:05.054Z,19.62
2018-04-27T11:20:05.025Z,19.59
2018-04-27T11:21:05.032Z,19.64
2018-04-27T11:22:04.994Z,19.96
2018-04-27T11:23:04.967Z,19.84
2018-04-27T11:24:04.954Z,20.02
2018-04-27T11:25:04.926Z,19.99
2018-04-27T11:26:04.917Z,20.02
2018-04-27T11:27:04.903Z,19.72
2018-04-27T11:28:04.866Z,19.49
2018-04-27T11:29:04.847Z,19.09
2018-04-27T11:30:04.819Z,19.27
2018-04-27T11:31:04.793Z,19.20
2018-04-27T11:32:04.766Z,19.13
2018-04-27T11:33:04.768Z,19.23
2018-04-27T11:34:04.788Z,18.93
2018-04-27T11:35:04.719Z,19.12
2018-04-27T11:36:04.689Z,19.26
2018-04-27T11:37:04.670Z,19.53
2018-04-27T11:38:04.645Z,19.56
2018-04-27T11:39:04.677Z,19.79
2018-04-27T11:40:04.604Z,20.52
2018-04-27T11:41:04.580Z,20.93
2018-04-27T11:42:04.555Z,21.29
2018-04-27T11:43:04.532Z,22.09
2018-04-27T11:44:04.506Z,22.51
2018-04-27T11:45:04.500Z,22.96
2018-04-27T11:46:04.484Z,23.25
2018-04-27T11:47:04.451Z,23.13
2018-04-27T11:48:04.450Z,22.88
2018-04-27T11:49:04.407Z,22.73
2018-04-27T11:50:04.402Z,22.09
2018-04-27T11:51:04.368Z,21.80
2018-04-27T11:52:04.361Z,21.81
2018-04-27T11:53:04.340Z,21.20
2018-04-27T11:54:04.308Z,21.26
2018-04-27T11:55:04.290Z,20.85
2018-04-27T11:56:04.270Z,20.73
2018-04-27T11:57:04.248Z,20.82
2018-04-27T11:58:04.229Z,21.01
2018-04-27T11:59:04.212Z,21.00
2018-04-27T12:00:04.277Z,21.26
2018-04-27T12:01:04.164Z,21.67
2018-04-27T12:02:04.163Z,21.63
2018-04-27T12:03:04.140Z,21.88
2018-04-27T12:04:04.112Z,22.16
2018-04-27T12:05:04.102Z,22.56
2018-04-27T12:06:04.088Z,22.62
2018-04-27T12:07:04.054Z,22.76
2018-04-27T12:08:04.202Z,22.70
2018-04-27T12:09:04.015Z,22.80
2018-04-27T12:10:04.004Z,22.53
2018-04-27T12:11:03.984Z,22.88
2018-04-27T12:12:03.960Z,22.74
2018-04-27T12:13:04.010Z,23.04
2018-04-27T12:14:03.917Z,22.09
2018-04-27T12:15:03.900Z,21.91
2018-04-27T12:16:03.892Z,21.26
2018-04-27T12:17:03.865Z,21.28
2018-04-27T12:18:03.853Z,21.43
2018-04-27T12:19:03.855Z,20.85
2018-04-27T12:20:03.821Z,20.82
2018-04-27T12:21:03.796Z,20.82
2018-04-27T12:22:03.774Z,21.11
2018-04-27T12:23:03.757Z,21.56
2018-04-27T12:24:03.735Z,21.35
2018-04-27T12:25:03.728Z,21.34
2018-04-27T12:26:03.708Z,21.32
2018-04-27T12:27:03.681Z,22.46
2018-04-27T12:28:03.662Z,22.44
2018-04-27T12:29:03.646Z,22.58
2018-04-27T12:30:03.637Z,22.00
2018-04-27T12:31:03.604Z,22.77
2018-04-27T12:32:03.586Z,22.73
2018-04-27T12:33:03.575Z,22.37
2018-04-27T12:34:03.567Z,22.22
2018-04-27T12:35:03.538Z,21.50
2018-04-27T12:36:03.514Z,21.78
2018-04-27T12:37:03.509Z,21.98
2018-04-27T12:38:03.482Z,22.40
2018-04-27T12:39:03.465Z,23.37
2018-04-27T12:40:03.452Z,24.06
2018-04-27T12:41:03.431Z,24.53
2018-04-27T12:42:03.412Z,24.55
2018-04-27T12:43:03.387Z,23.23
2018-04-27T12:44:03.379Z,23.23
2018-04-27T12:45:03.403Z,23.42
2018-04-27T12:46:03.347Z,23.63
2018-04-27T12:47:03.326Z,24.15
2018-04-27T12:48:03.316Z,24.15
2018-04-27T12:49:03.317Z,23.79
2018-04-27T12:50:03.308Z,23.69
2018-04-27T12:51:03.263Z,24.48
2018-04-27T12:52:03.248Z,24.44
2018-04-27T12:53:03.240Z,24.74
2018-04-27T12:54:03.217Z,24.58
2018-04-27T12:55:03.196Z,24.38
2018-04-27T12:56:03.181Z,24.71
2018-04-27T12:57:03.176Z,24.23
2018-04-27T12:58:03.146Z,24.23
2018-04-27T12:59:03.131Z,24.15
2018-04-27T13:00:03.127Z,23.17
2018-04-27T13:01:03.140Z,22.56
2018-04-27T13:02:03.088Z,22.40
2018-04-27T13:03:03.136Z,22.55
2018-04-27T13:04:03.052Z,22.77
2018-04-27T13:05:03.081Z,22.85
2018-04-27T13:06:03.030Z,22.74
2018-04-27T13:07:03.023Z,22.81
2018-04-27T13:08:03.036Z,23.73
2018-04-27T13:09:02.981Z,25.01
2018-04-27T13:10:02.973Z,24.07
2018-04-27T13:11:02.968Z,24.60
2018-04-27T13:12:02.936Z,23.54
2018-04-27T13:13:02.934Z,23.10
2018-04-27T13:14:02.900Z,22.74
2018-04-27T13:15:02.890Z,22.43
2018-04-27T13:16:02.873Z,22.28
2018-04-27T13:17:02.858Z,22.01
2018-04-27T13:18:02.839Z,22.03
2018-04-27T13:19:02.831Z,21.71
2018-04-27T13:20:02.815Z,22.18
2018-04-27T13:21:02.802Z,21.85
2018-04-27T13:22:02.778Z,21.82
2018-04-27T13:23:02.808Z,21.62
2018-04-27T13:24:02.749Z,21.60
2018-04-27T13:25:02.831Z,21.55
2018-04-27T13:26:02.728Z,21.41
2018-04-27T13:27:02.699Z,21.60
2018-04-27T13:28:02.681Z,21.53
2018-04-27T13:29:02.667Z,21.45
2018-04-27T13:30:02.638Z,21.37
2018-04-27T13:31:02.629Z,21.32
2018-04-27T13:32:02.603Z,21.28
2018-04-27T13:33:02.589Z,21.25
2018-04-27T13:34:02.606Z,21.50
2018-04-27T13:35:02.562Z,21.94